Elida, NM

11:53 AM MDT on July 24, 2016 (GMT -0600)
WT_Meso | | Change Station

Elev 4336 ft 33.92 °N, 103.36 °W | Updated 48 minutes ago

Clear
Clear
91 °F
Feels Like 88 °F
N
13
Wind Variable Wind from SE
Gusts 0.0 mph

Today
High -- | Low -- °F
--% Chance of Precip.
Yesterday
High -- | Low -- °F
Precip. -- in
Pressure 29.91 in
Visibility 10.0 miles
Clouds Clear
Heat Index 88 °F
Dew Point 50 °F
Humidity 24%
Rainfall in
Snow Depth Not available.
6:00 AM 8:00 PM
Waning Gibbous, 74% visible
METAR K4MR 241658Z AUTO 12007G13KT 10SM CLR 33/11 A3013 RMK AO2 SLP128 T03280113 $
Pressure 29.91 in
Visibility 10.0 miles
Clouds Clear
Heat Index 88 °F
Dew Point 50 °F
Humidity 24%
Rainfall in
Snow Depth Not available.
6:00 AM 8:00 PM
Waning Gibbous, 74% visible
METAR K4MR 241658Z AUTO 12007G13KT 10SM CLR 33/11 A3013 RMK AO2 SLP128 T03280113 $

10-Day Weather Forecast

Almanac

Astronomy

Jul. 24, 2016 Rise Set
Actual Time
Civil Twilight
Nautical Twilight
Astronomical Twilight
Moon
Length of Visible Light
Length of Day
Tomorrow will be .
, % of the Moon is Illuminated

Today's Extremes

State Highs State Lows

Community

WunderPhotos

Upload Photos

1,927,134 photos uploaded!

WunderBlog® & News

Nearby

Air Quality

  Air Quality AQ Index Pollutant
Not available.

Snow Depth

Station Depth Elevation

Earthquake Activity

City Distance Mag. Time & Date
Minimum magnitude displayed is 2.5.

Coastal Water Temperatures

Place Temperature

Stations

Nearby Weather Stations

Station Location Temp. Windchill Dew Point Humidity Wind Precip. Elev Updated Type
                   

Watches & Warnings

There are currently no watches in effect.